sensor_id;sensor_type;location;lat;lon;timestamp;temperature;humidity
12481;DHT22;6305;48.398;11.762;2023-11-19T00:00:08;4.30;99.90
12481;DHT22;6305;48.398;11.762;2023-11-19T00:02:38;4.30;99.90
12481;DHT22;6305;48.398;11.762;2023-11-19T00:05:05;4.30;99.90
12481;DHT22;6305;48.398;11.762;2023-11-19T00:07:35;4.30;99.90
12481;DHT22;6305;48.398;11.762;2023-11-19T00:10:02;4.30;99.90
12481;DHT22;6305;48.398;11.762;2023-11-19T00:12:38;4.30;99.90
12481;DHT22;6305;48.398;11.762;2023-11-19T00:15:08;4.30;99.90
12481;DHT22;6305;48.398;11.762;2023-11-19T00:17:37;4.40;99.90
12481;DHT22;6305;48.398;11.762;2023-11-19T00:20:09;4.40;99.90
12481;DHT22;6305;48.398;11.762;2023-11-19T00:22:37;4.40;99.90
12481;DHT22;6305;48.398;11.762;2023-11-19T00:25:07;4.40;99.90
12481;DHT22;6305;48.398;11.762;2023-11-19T00:27:35;4.40;99.90
12481;DHT22;6305;48.398;11.762;2023-11-19T00:30:06;4.40;99.90
12481;DHT22;6305;48.398;11.762;2023-11-19T00:32:34;4.50;99.90
12481;DHT22;6305;48.398;11.762;2023-11-19T00:35:02;4.50;99.90
12481;DHT22;6305;48.398;11.762;2023-11-19T00:37:30;4.50;99.90
12481;DHT22;6305;48.398;11.762;2023-11-19T00:39:57;4.50;99.90
12481;DHT22;6305;48.398;11.762;2023-11-19T00:42:25;4.50;99.90
12481;DHT22;6305;48.398;11.762;2023-11-19T00:44:52;4.50;99.90
12481;DHT22;6305;48.398;11.762;2023-11-19T00:47:22;4.50;99.90
12481;DHT22;6305;48.398;11.762;2023-11-19T00:49:50;4.50;99.90
12481;DHT22;6305;48.398;11.762;2023-11-19T00:52:17;4.60;99.90
12481;DHT22;6305;48.398;11.762;2023-11-19T00:54:45;4.60;99.90
12481;DHT22;6305;48.398;11.762;2023-11-19T00:57:12;4.60;99.90
12481;DHT22;6305;48.398;11.762;2023-11-19T00:59:41;4.70;99.90
12481;DHT22;6305;48.398;11.762;2023-11-19T01:02:08;4.70;99.90
12481;DHT22;6305;48.398;11.762;2023-11-19T01:04:37;4.60;99.90
12481;DHT22;6305;48.398;11.762;2023-11-19T01:07:04;4.60;99.90
12481;DHT22;6305;48.398;11.762;2023-11-19T01:09:32;4.60;99.90
12481;DHT22;6305;48.398;11.762;2023-11-19T01:12:00;4.60;99.90
12481;DHT22;6305;48.398;11.762;2023-11-19T01:14:29;4.70;99.90
12481;DHT22;6305;48.398;11.762;2023-11-19T01:16:56;4.70;99.90
12481;DHT22;6305;48.398;11.762;2023-11-19T01:19:23;4.70;99.90
12481;DHT22;6305;48.398;11.762;2023-11-19T01:21:52;4.70;99.90
12481;DHT22;6305;48.398;11.762;2023-11-19T01:24:19;4.70;99.90
12481;DHT22;6305;48.398;11.762;2023-11-19T01:26:46;4.70;99.90
12481;DHT22;6305;48.398;11.762;2023-11-19T01:29:14;4.70;99.90
12481;DHT22;6305;48.398;11.762;2023-11-19T01:31:42;4.70;99.90
12481;DHT22;6305;48.398;11.762;2023-11-19T01:34:10;4.80;99.90
12481;DHT22;6305;48.398;11.762;2023-11-19T01:36:38;4.80;99.90
12481;DHT22;6305;48.398;11.762;2023-11-19T01:39:07;4.80;99.90
12481;DHT22;6305;48.398;11.762;2023-11-19T01:41:34;4.80;99.90
12481;DHT22;6305;48.398;11.762;2023-11-19T01:44:02;4.80;99.90
12481;DHT22;6305;48.398;11.762;2023-11-19T01:46:30;4.80;99.90
12481;DHT22;6305;48.398;11.762;2023-11-19T01:48:59;4.90;99.90
12481;DHT22;6305;48.398;11.762;2023-11-19T01:51:27;4.90;99.90
12481;DHT22;6305;48.398;11.762;2023-11-19T01:53:55;4.90;99.90
12481;DHT22;6305;48.398;11.762;2023-11-19T01:56:26;4.90;99.90
12481;DHT22;6305;48.398;11.762;2023-11-19T01:58:54;4.90;99.90
12481;DHT22;6305;48.398;11.762;2023-11-19T02:01:22;4.90;99.90
12481;DHT22;6305;48.398;11.762;2023-11-19T02:03:49;4.90;99.90
12481;DHT22;6305;48.398;11.762;2023-11-19T02:06:20;4.90;99.90
12481;DHT22;6305;48.398;11.762;2023-11-19T02:08:47;4.90;99.90
12481;DHT22;6305;48.398;11.762;2023-11-19T02:11:14;5.00;99.90
12481;DHT22;6305;48.398;11.762;2023-11-19T02:13:42;5.00;99.90
12481;DHT22;6305;48.398;11.762;2023-11-19T02:16:13;5.00;99.90
12481;DHT22;6305;48.398;11.762;2023-11-19T02:18:40;5.10;99.90
12481;DHT22;6305;48.398;11.762;2023-11-19T02:21:07;5.10;99.90
12481;DHT22;6305;48.398;11.762;2023-11-19T02:23:36;5.10;99.90
12481;DHT22;6305;48.398;11.762;2023-11-19T02:26:09;5.10;99.90
12481;DHT22;6305;48.398;11.762;2023-11-19T02:28:38;5.10;99.90
12481;DHT22;6305;48.398;11.762;2023-11-19T02:31:06;5.20;99.90
12481;DHT22;6305;48.398;11.762;2023-11-19T02:33:35;5.20;99.90
12481;DHT22;6305;48.398;11.762;2023-11-19T02:36:05;5.20;99.90
12481;DHT22;6305;48.398;11.762;2023-11-19T02:38:32;5.20;99.90
12481;DHT22;6305;48.398;11.762;2023-11-19T02:41:02;5.20;99.90
12481;DHT22;6305;48.398;11.762;2023-11-19T02:43:31;5.20;99.90
12481;DHT22;6305;48.398;11.762;2023-11-19T02:46:01;5.30;99.90
12481;DHT22;6305;48.398;11.762;2023-11-19T02:48:30;5.30;99.90
12481;DHT22;6305;48.398;11.762;2023-11-19T02:50:57;5.30;99.90
12481;DHT22;6305;48.398;11.762;2023-11-19T02:53:24;5.40;99.90
12481;DHT22;6305;48.398;11.762;2023-11-19T02:55:53;5.40;99.90
12481;DHT22;6305;48.398;11.762;2023-11-19T02:58:27;5.40;99.90
12481;DHT22;6305;48.398;11.762;2023-11-19T03:00:54;5.50;99.90
12481;DHT22;6305;48.398;11.762;2023-11-19T03:03:26;5.50;99.90
12481;DHT22;6305;48.398;11.762;2023-11-19T03:05:56;5.50;99.90
12481;DHT22;6305;48.398;11.762;2023-11-19T03:08:24;5.50;99.90
12481;DHT22;6305;48.398;11.762;2023-11-19T03:10:51;5.50;99.90
12481;DHT22;6305;48.398;11.762;2023-11-19T03:13:19;5.60;99.90
12481;DHT22;6305;48.398;11.762;2023-11-19T03:15:47;5.50;99.90
12481;DHT22;6305;48.398;11.762;2023-11-19T03:18:15;5.50;99.90
12481;DHT22;6305;48.398;11.762;2023-11-19T03:20:44;5.50;99.90
12481;DHT22;6305;48.398;11.762;2023-11-19T03:23:13;5.60;99.90
12481;DHT22;6305;48.398;11.762;2023-11-19T03:25:40;5.60;99.90
12481;DHT22;6305;48.398;11.762;2023-11-19T03:28:09;5.60;99.90
12481;DHT22;6305;48.398;11.762;2023-11-19T03:30:37;5.70;99.90
12481;DHT22;6305;48.398;11.762;2023-11-19T03:33:04;5.70;99.90
12481;DHT22;6305;48.398;11.762;2023-11-19T03:35:34;5.70;99.90
12481;DHT22;6305;48.398;11.762;2023-11-19T03:38:02;5.70;99.90
12481;DHT22;6305;48.398;11.762;2023-11-19T03:40:30;5.70;99.90
12481;DHT22;6305;48.398;11.762;2023-11-19T03:42:57;5.80;99.90
12481;DHT22;6305;48.398;11.762;2023-11-19T03:45:24;5.80;99.90
12481;DHT22;6305;48.398;11.762;2023-11-19T03:47:51;5.80;99.90
12481;DHT22;6305;48.398;11.762;2023-11-19T03:50:18;5.80;99.90
12481;DHT22;6305;48.398;11.762;2023-11-19T03:52:47;5.80;99.90
12481;DHT22;6305;48.398;11.762;2023-11-19T03:55:15;5.80;99.90
12481;DHT22;6305;48.398;11.762;2023-11-19T03:57:43;5.80;99.90
12481;DHT22;6305;48.398;11.762;2023-11-19T04:00:10;5.80;99.90
12481;DHT22;6305;48.398;11.762;2023-11-19T04:02:40;5.80;99.90
12481;DHT22;6305;48.398;11.762;2023-11-19T04:05:07;5.90;99.90
12481;DHT22;6305;48.398;11.762;2023-11-19T04:07:37;5.90;99.90
12481;DHT22;6305;48.398;11.762;2023-11-19T04:10:05;5.90;99.90
12481;DHT22;6305;48.398;11.762;2023-11-19T04:12:35;5.90;99.90
12481;DHT22;6305;48.398;11.762;2023-11-19T04:15:02;6.00;99.90
12481;DHT22;6305;48.398;11.762;2023-11-19T04:17:30;6.00;99.90
12481;DHT22;6305;48.398;11.762;2023-11-19T04:19:57;6.10;99.90
12481;DHT22;6305;48.398;11.762;2023-11-19T04:22:25;6.10;99.90
12481;DHT22;6305;48.398;11.762;2023-11-19T04:24:53;6.10;99.90
12481;DHT22;6305;48.398;11.762;2023-11-19T04:27:20;6.10;99.90
12481;DHT22;6305;48.398;11.762;2023-11-19T04:29:48;6.10;99.90
12481;DHT22;6305;48.398;11.762;2023-11-19T04:32:16;6.10;99.90
12481;DHT22;6305;48.398;11.762;2023-11-19T04:34:44;6.20;99.90
12481;DHT22;6305;48.398;11.762;2023-11-19T04:37:11;6.20;99.90
12481;DHT22;6305;48.398;11.762;2023-11-19T04:39:38;6.20;99.90
12481;DHT22;6305;48.398;11.762;2023-11-19T04:42:05;6.20;99.90
12481;DHT22;6305;48.398;11.762;2023-11-19T04:44:33;6.30;99.90
12481;DHT22;6305;48.398;11.762;2023-11-19T04:47:02;6.30;99.90
12481;DHT22;6305;48.398;11.762;2023-11-19T04:49:29;6.30;99.90
12481;DHT22;6305;48.398;11.762;2023-11-19T04:51:59;6.40;99.90
12481;DHT22;6305;48.398;11.762;2023-11-19T04:54:26;6.50;99.90
12481;DHT22;6305;48.398;11.762;2023-11-19T04:56:53;6.60;99.90
12481;DHT22;6305;48.398;11.762;2023-11-19T04:59:21;6.70;99.90
12481;DHT22;6305;48.398;11.762;2023-11-19T05:01:50;6.80;99.90
12481;DHT22;6305;48.398;11.762;2023-11-19T05:04:19;7.00;99.90
12481;DHT22;6305;48.398;11.762;2023-11-19T05:06:46;7.10;99.90
12481;DHT22;6305;48.398;11.762;2023-11-19T05:09:13;7.30;99.90
12481;DHT22;6305;48.398;11.762;2023-11-19T05:11:40;7.40;99.90
12481;DHT22;6305;48.398;11.762;2023-11-19T05:14:07;7.50;99.90
12481;DHT22;6305;48.398;11.762;2023-11-19T05:16:35;7.60;99.90
12481;DHT22;6305;48.398;11.762;2023-11-19T05:19:02;7.70;99.90
12481;DHT22;6305;48.398;11.762;2023-11-19T05:21:31;7.80;99.90
12481;DHT22;6305;48.398;11.762;2023-11-19T05:24:00;7.80;99.90
12481;DHT22;6305;48.398;11.762;2023-11-19T05:26:27;7.90;99.90
12481;DHT22;6305;48.398;11.762;2023-11-19T05:28:54;7.90;99.90
12481;DHT22;6305;48.398;11.762;2023-11-19T05:31:21;8.00;99.90
12481;DHT22;6305;48.398;11.762;2023-11-19T05:33:48;8.00;99.90
12481;DHT22;6305;48.398;11.762;2023-11-19T05:36:15;8.10;99.90
12481;DHT22;6305;48.398;11.762;2023-11-19T05:38:44;8.10;99.90
12481;DHT22;6305;48.398;11.762;2023-11-19T05:41:13;8.10;99.90
12481;DHT22;6305;48.398;11.762;2023-11-19T05:43:40;8.10;99.90
12481;DHT22;6305;48.398;11.762;2023-11-19T05:46:08;8.20;99.90
12481;DHT22;6305;48.398;11.762;2023-11-19T05:48:35;8.20;99.90
12481;DHT22;6305;48.398;11.762;2023-11-19T05:51:02;8.20;99.90
12481;DHT22;6305;48.398;11.762;2023-11-19T05:53:29;8.20;99.90
12481;DHT22;6305;48.398;11.762;2023-11-19T05:55:58;8.20;99.90
12481;DHT22;6305;48.398;11.762;2023-11-19T05:58:29;8.20;99.90
12481;DHT22;6305;48.398;11.762;2023-11-19T06:00:58;8.20;99.90
12481;DHT22;6305;48.398;11.762;2023-11-19T06:03:29;8.30;99.90
12481;DHT22;6305;48.398;11.762;2023-11-19T06:05:56;8.30;99.90
12481;DHT22;6305;48.398;11.762;2023-11-19T06:08:26;8.30;99.90
12481;DHT22;6305;48.398;11.762;2023-11-19T06:10:53;8.30;99.90
12481;DHT22;6305;48.398;11.762;2023-11-19T06:13:22;8.40;99.90
12481;DHT22;6305;48.398;11.762;2023-11-19T06:15:49;8.40;99.90
12481;DHT22;6305;48.398;11.762;2023-11-19T06:18:17;8.40;99.90
12481;DHT22;6305;48.398;11.762;2023-11-19T06:20:45;8.40;99.90
12481;DHT22;6305;48.398;11.762;2023-11-19T06:23:12;8.50;99.90
12481;DHT22;6305;48.398;11.762;2023-11-19T06:25:41;8.50;99.90
12481;DHT22;6305;48.398;11.762;2023-11-19T06:28:08;8.50;99.90
12481;DHT22;6305;48.398;11.762;2023-11-19T06:30:37;8.50;99.90
12481;DHT22;6305;48.398;11.762;2023-11-19T06:33:04;8.50;99.90
12481;DHT22;6305;48.398;11.762;2023-11-19T06:35:31;8.60;99.90
12481;DHT22;6305;48.398;11.762;2023-11-19T06:38:02;8.60;99.90
12481;DHT22;6305;48.398;11.762;2023-11-19T06:40:32;8.60;99.90
12481;DHT22;6305;48.398;11.762;2023-11-19T06:43:01;8.70;99.90
12481;DHT22;6305;48.398;11.762;2023-11-19T06:45:29;8.70;99.90
12481;DHT22;6305;48.398;11.762;2023-11-19T06:48:03;8.70;99.90
12481;DHT22;6305;48.398;11.762;2023-11-19T06:50:31;8.80;99.90
12481;DHT22;6305;48.398;11.762;2023-11-19T06:52:59;8.80;99.90
12481;DHT22;6305;48.398;11.762;2023-11-19T06:55:26;8.80;99.90
12481;DHT22;6305;48.398;11.762;2023-11-19T06:57:54;8.80;99.90
12481;DHT22;6305;48.398;11.762;2023-11-19T07:00:21;8.90;99.90
12481;DHT22;6305;48.398;11.762;2023-11-19T07:02:48;8.90;99.90
12481;DHT22;6305;48.398;11.762;2023-11-19T07:05:17;9.00;99.90
12481;DHT22;6305;48.398;11.762;2023-11-19T07:07:44;8.90;99.90
12481;DHT22;6305;48.398;11.762;2023-11-19T07:10:12;9.00;99.90
12481;DHT22;6305;48.398;11.762;2023-11-19T07:12:41;9.00;99.90
12481;DHT22;6305;48.398;11.762;2023-11-19T07:15:10;9.00;99.90
12481;DHT22;6305;48.398;11.762;2023-11-19T07:17:38;9.00;99.90
12481;DHT22;6305;48.398;11.762;2023-11-19T07:20:07;9.10;99.90
12481;DHT22;6305;48.398;11.762;2023-11-19T07:22:36;9.10;99.90
12481;DHT22;6305;48.398;11.762;2023-11-19T07:25:04;9.10;99.90
12481;DHT22;6305;48.398;11.762;2023-11-19T07:27:34;9.20;99.90
12481;DHT22;6305;48.398;11.762;2023-11-19T07:30:02;9.20;99.90
12481;DHT22;6305;48.398;11.762;2023-11-19T07:32:29;9.20;99.90
12481;DHT22;6305;48.398;11.762;2023-11-19T07:34:56;9.30;99.90
12481;DHT22;6305;48.398;11.762;2023-11-19T07:37:24;9.30;99.90
12481;DHT22;6305;48.398;11.762;2023-11-19T07:39:52;9.30;99.90
12481;DHT22;6305;48.398;11.762;2023-11-19T07:42:19;9.40;99.90
12481;DHT22;6305;48.398;11.762;2023-11-19T07:44:46;9.40;99.90
12481;DHT22;6305;48.398;11.762;2023-11-19T07:47:14;9.40;99.90
12481;DHT22;6305;48.398;11.762;2023-11-19T07:49:41;9.50;99.90
12481;DHT22;6305;48.398;11.762;2023-11-19T07:52:09;9.50;99.90
12481;DHT22;6305;48.398;11.762;2023-11-19T07:54:36;9.50;99.90
12481;DHT22;6305;48.398;11.762;2023-11-19T07:57:05;9.50;99.90
12481;DHT22;6305;48.398;11.762;2023-11-19T07:59:32;9.60;99.90
12481;DHT22;6305;48.398;11.762;2023-11-19T08:01:59;9.60;99.90
12481;DHT22;6305;48.398;11.762;2023-11-19T08:04:26;9.60;99.90
12481;DHT22;6305;48.398;11.762;2023-11-19T08:06:54;9.60;99.90
12481;DHT22;6305;48.398;11.762;2023-11-19T08:09:22;9.70;99.90
12481;DHT22;6305;48.398;11.762;2023-11-19T08:11:49;9.70;99.90
12481;DHT22;6305;48.398;11.762;2023-11-19T08:14:18;9.70;99.90
12481;DHT22;6305;48.398;11.762;2023-11-19T08:16:45;9.80;99.90
12481;DHT22;6305;48.398;11.762;2023-11-19T08:19:15;9.80;99.90
12481;DHT22;6305;48.398;11.762;2023-11-19T08:21:43;9.90;99.90
12481;DHT22;6305;48.398;11.762;2023-11-19T08:24:11;10.00;99.90
12481;DHT22;6305;48.398;11.762;2023-11-19T08:26:38;10.10;99.90
12481;DHT22;6305;48.398;11.762;2023-11-19T08:29:05;10.20;99.90
12481;DHT22;6305;48.398;11.762;2023-11-19T08:31:34;10.30;99.90
12481;DHT22;6305;48.398;11.762;2023-11-19T08:34:01;10.50;99.90
12481;DHT22;6305;48.398;11.762;2023-11-19T08:36:28;10.50;99.90
12481;DHT22;6305;48.398;11.762;2023-11-19T08:38:57;10.60;99.90
12481;DHT22;6305;48.398;11.762;2023-11-19T08:41:24;10.60;99.90
12481;DHT22;6305;48.398;11.762;2023-11-19T08:43:52;10.60;99.90
12481;DHT22;6305;48.398;11.762;2023-11-19T08:46:19;10.60;99.90
12481;DHT22;6305;48.398;11.762;2023-11-19T08:48:48;10.50;99.90
12481;DHT22;6305;48.398;11.762;2023-11-19T08:51:15;10.50;99.90
12481;DHT22;6305;48.398;11.762;2023-11-19T08:53:42;10.50;99.90
12481;DHT22;6305;48.398;11.762;2023-11-19T08:56:09;10.50;99.90
12481;DHT22;6305;48.398;11.762;2023-11-19T08:58:36;10.60;99.90
12481;DHT22;6305;48.398;11.762;2023-11-19T09:01:04;10.80;99.90
12481;DHT22;6305;48.398;11.762;2023-11-19T09:03:31;10.90;99.90
12481;DHT22;6305;48.398;11.762;2023-11-19T09:06:01;11.00;99.90
12481;DHT22;6305;48.398;11.762;2023-11-19T09:08:28;11.10;99.90
12481;DHT22;6305;48.398;11.762;2023-11-19T09:10:56;11.00;99.90
12481;DHT22;6305;48.398;11.762;2023-11-19T09:13:23;10.90;99.90
12481;DHT22;6305;48.398;11.762;2023-11-19T09:15:50;10.90;99.90
12481;DHT22;6305;48.398;11.762;2023-11-19T09:18:17;10.90;99.90
12481;DHT22;6305;48.398;11.762;2023-11-19T09:20:45;10.90;99.90
12481;DHT22;6305;48.398;11.762;2023-11-19T09:23:13;11.00;99.90
12481;DHT22;6305;48.398;11.762;2023-11-19T09:25:41;11.10;99.90
12481;DHT22;6305;48.398;11.762;2023-11-19T09:28:08;11.10;99.90
12481;DHT22;6305;48.398;11.762;2023-11-19T09:30:35;11.10;99.90
12481;DHT22;6305;48.398;11.762;2023-11-19T09:33:03;11.10;99.90
12481;DHT22;6305;48.398;11.762;2023-11-19T09:35:30;11.20;99.90
12481;DHT22;6305;48.398;11.762;2023-11-19T09:37:57;11.40;99.90
12481;DHT22;6305;48.398;11.762;2023-11-19T09:40:27;11.60;99.90
12481;DHT22;6305;48.398;11.762;2023-11-19T09:42:57;11.80;99.90
12481;DHT22;6305;48.398;11.762;2023-11-19T09:45:27;12.20;99.90
12481;DHT22;6305;48.398;11.762;2023-11-19T09:47:57;12.90;99.90
12481;DHT22;6305;48.398;11.762;2023-11-19T09:50:26;13.10;99.90
12481;DHT22;6305;48.398;11.762;2023-11-19T09:52:53;13.00;99.90
12481;DHT22;6305;48.398;11.762;2023-11-19T09:55:27;12.80;99.90
12481;DHT22;6305;48.398;11.762;2023-11-19T09:57:54;12.70;99.90
12481;DHT22;6305;48.398;11.762;2023-11-19T10:00:22;12.60;99.90
12481;DHT22;6305;48.398;11.762;2023-11-19T10:02:50;12.60;99.90
12481;DHT22;6305;48.398;11.762;2023-11-19T10:05:20;12.60;99.90
12481;DHT22;6305;48.398;11.762;2023-11-19T10:07:49;12.50;99.90
12481;DHT22;6305;48.398;11.762;2023-11-19T10:10:17;12.50;99.90
12481;DHT22;6305;48.398;11.762;2023-11-19T10:12:46;12.60;99.90
12481;DHT22;6305;48.398;11.762;2023-11-19T10:15:20;12.70;99.90
12481;DHT22;6305;48.398;11.762;2023-11-19T10:17:48;13.40;99.90
12481;DHT22;6305;48.398;11.762;2023-11-19T10:20:15;14.50;99.90
12481;DHT22;6305;48.398;11.762;2023-11-19T10:22:42;15.10;99.90
12481;DHT22;6305;48.398;11.762;2023-11-19T10:25:24;15.50;99.90
12481;DHT22;6305;48.398;11.762;2023-11-19T10:27:53;16.30;99.90
12481;DHT22;6305;48.398;11.762;2023-11-19T10:30:21;16.20;99.90
12481;DHT22;6305;48.398;11.762;2023-11-19T10:33:03;16.60;99.90
12481;DHT22;6305;48.398;11.762;2023-11-19T10:35:32;17.00;99.90
12481;DHT22;6305;48.398;11.762;2023-11-19T10:38:00;16.80;99.90
12481;DHT22;6305;48.398;11.762;2023-11-19T10:40:40;17.40;99.90
12481;DHT22;6305;48.398;11.762;2023-11-19T10:43:09;18.00;99.90
12481;DHT22;6305;48.398;11.762;2023-11-19T10:45:37;17.50;99.90
12481;DHT22;6305;48.398;11.762;2023-11-19T10:48:05;16.80;99.90
12481;DHT22;6305;48.398;11.762;2023-11-19T10:50:36;16.70;99.90
12481;DHT22;6305;48.398;11.762;2023-11-19T10:53:03;16.60;99.90
12481;DHT22;6305;48.398;11.762;2023-11-19T10:55:32;17.80;99.90
12481;DHT22;6305;48.398;11.762;2023-11-19T10:58:02;19.00;99.90
12481;DHT22;6305;48.398;11.762;2023-11-19T11:00:35;19.10;99.90
12481;DHT22;6305;48.398;11.762;2023-11-19T11:03:10;20.30;99.90
12481;DHT22;6305;48.398;11.762;2023-11-19T11:05:38;20.00;99.90
12481;DHT22;6305;48.398;11.762;2023-11-19T11:08:07;20.60;99.90
12481;DHT22;6305;48.398;11.762;2023-11-19T11:10:39;21.80;99.90
12481;DHT22;6305;48.398;11.762;2023-11-19T11:13:06;21.90;97.90
12481;DHT22;6305;48.398;11.762;2023-11-19T11:15:36;20.70;99.90
12481;DHT22;6305;48.398;11.762;2023-11-19T11:18:06;20.10;99.90
12481;DHT22;6305;48.398;11.762;2023-11-19T11:20:35;19.80;99.90
12481;DHT22;6305;48.398;11.762;2023-11-19T11:23:36;18.60;99.90
12481;DHT22;6305;48.398;11.762;2023-11-19T11:26:18;17.40;99.90
12481;DHT22;6305;48.398;11.762;2023-11-19T11:28:57;16.60;99.90
12481;DHT22;6305;48.398;11.762;2023-11-19T11:31:37;15.60;99.90
12481;DHT22;6305;48.398;11.762;2023-11-19T11:34:21;14.90;99.90
12481;DHT22;6305;48.398;11.762;2023-11-19T11:37:01;15.20;99.90
12481;DHT22;6305;48.398;11.762;2023-11-19T11:39:32;16.20;99.90
12481;DHT22;6305;48.398;11.762;2023-11-19T11:45:09;17.60;99.90
12481;DHT22;6305;48.398;11.762;2023-11-19T11:50:57;18.90;99.90
12481;DHT22;6305;48.398;11.762;2023-11-19T11:53:25;20.10;99.90
12481;DHT22;6305;48.398;11.762;2023-11-19T11:56:02;19.90;99.90
12481;DHT22;6305;48.398;11.762;2023-11-19T11:58:32;19.80;99.90
12481;DHT22;6305;48.398;11.762;2023-11-19T12:01:01;19.00;99.90
12481;DHT22;6305;48.398;11.762;2023-11-19T12:03:29;18.70;99.90
12481;DHT22;6305;48.398;11.762;2023-11-19T12:05:58;18.60;99.90
12481;DHT22;6305;48.398;11.762;2023-11-19T12:08:27;18.30;99.90
12481;DHT22;6305;48.398;11.762;2023-11-19T12:10:56;18.20;99.90
12481;DHT22;6305;48.398;11.762;2023-11-19T12:13:29;18.70;99.90
12481;DHT22;6305;48.398;11.762;2023-11-19T12:16:09;18.90;99.90
12481;DHT22;6305;48.398;11.762;2023-11-19T12:18:39;18.00;99.90
12481;DHT22;6305;48.398;11.762;2023-11-19T12:21:07;17.10;99.90
12481;DHT22;6305;48.398;11.762;2023-11-19T12:23:44;16.40;99.90
12481;DHT22;6305;48.398;11.762;2023-11-19T12:26:32;15.70;99.90
12481;DHT22;6305;48.398;11.762;2023-11-19T12:29:00;15.40;99.90
12481;DHT22;6305;48.398;11.762;2023-11-19T12:31:30;15.70;99.90
12481;DHT22;6305;48.398;11.762;2023-11-19T12:33:57;16.70;99.90
12481;DHT22;6305;48.398;11.762;2023-11-19T12:36:27;18.50;99.90
12481;DHT22;6305;48.398;11.762;2023-11-19T12:38:54;19.70;99.90
12481;DHT22;6305;48.398;11.762;2023-11-19T12:41:21;19.80;99.90
12481;DHT22;6305;48.398;11.762;2023-11-19T12:43:49;19.10;99.90
12481;DHT22;6305;48.398;11.762;2023-11-19T12:46:18;20.10;99.90
12481;DHT22;6305;48.398;11.762;2023-11-19T12:48:46;21.60;99.90
12481;DHT22;6305;48.398;11.762;2023-11-19T12:51:13;22.20;96.80
12481;DHT22;6305;48.398;11.762;2023-11-19T12:53:49;23.10;94.70
12481;DHT22;6305;48.398;11.762;2023-11-19T12:56:20;23.60;84.90
12481;DHT22;6305;48.398;11.762;2023-11-19T12:58:49;22.20;87.40
12481;DHT22;6305;48.398;11.762;2023-11-19T13:01:17;20.40;94.60
12481;DHT22;6305;48.398;11.762;2023-11-19T13:03:46;18.90;99.90
12481;DHT22;6305;48.398;11.762;2023-11-19T13:06:15;18.30;99.90
12481;DHT22;6305;48.398;11.762;2023-11-19T13:08:43;17.90;99.90
12481;DHT22;6305;48.398;11.762;2023-11-19T13:11:12;17.40;99.90
12481;DHT22;6305;48.398;11.762;2023-11-19T13:13:56;16.80;99.90
12481;DHT22;6305;48.398;11.762;2023-11-19T13:16:24;16.20;99.90
12481;DHT22;6305;48.398;11.762;2023-11-19T13:18:52;15.80;99.90
12481;DHT22;6305;48.398;11.762;2023-11-19T13:21:20;15.50;99.90
12481;DHT22;6305;48.398;11.762;2023-11-19T13:23:47;15.20;99.90
12481;DHT22;6305;48.398;11.762;2023-11-19T13:26:16;15.00;99.90
12481;DHT22;6305;48.398;11.762;2023-11-19T13:28:43;15.00;99.90
12481;DHT22;6305;48.398;11.762;2023-11-19T13:31:10;15.10;99.90
12481;DHT22;6305;48.398;11.762;2023-11-19T13:33:37;16.90;99.90
12481;DHT22;6305;48.398;11.762;2023-11-19T13:36:05;18.90;99.90
12481;DHT22;6305;48.398;11.762;2023-11-19T13:38:33;19.90;99.90
12481;DHT22;6305;48.398;11.762;2023-11-19T13:41:01;19.80;99.90
12481;DHT22;6305;48.398;11.762;2023-11-19T13:43:32;18.80;99.90
12481;DHT22;6305;48.398;11.762;2023-11-19T13:45:59;17.90;99.90
12481;DHT22;6305;48.398;11.762;2023-11-19T13:48:27;17.10;99.90
12481;DHT22;6305;48.398;11.762;2023-11-19T13:50:56;16.60;99.90
12481;DHT22;6305;48.398;11.762;2023-11-19T13:53:26;16.20;99.90
12481;DHT22;6305;48.398;11.762;2023-11-19T13:55:53;16.10;99.90
12481;DHT22;6305;48.398;11.762;2023-11-19T13:58:20;16.20;99.90
12481;DHT22;6305;48.398;11.762;2023-11-19T14:00:49;16.60;99.90
12481;DHT22;6305;48.398;11.762;2023-11-19T14:03:16;16.60;99.90
12481;DHT22;6305;48.398;11.762;2023-11-19T14:05:43;16.60;99.90
12481;DHT22;6305;48.398;11.762;2023-11-19T14:08:11;16.20;99.90
12481;DHT22;6305;48.398;11.762;2023-11-19T14:10:38;15.70;99.90
12481;DHT22;6305;48.398;11.762;2023-11-19T14:13:06;15.40;99.90
12481;DHT22;6305;48.398;11.762;2023-11-19T14:15:33;15.10;99.90
12481;DHT22;6305;48.398;11.762;2023-11-19T14:18:02;14.80;99.90
12481;DHT22;6305;48.398;11.762;2023-11-19T14:20:29;14.70;99.90
12481;DHT22;6305;48.398;11.762;2023-11-19T14:22:57;14.70;99.90
12481;DHT22;6305;48.398;11.762;2023-11-19T14:25:24;14.50;99.90
12481;DHT22;6305;48.398;11.762;2023-11-19T14:27:51;14.50;99.90
12481;DHT22;6305;48.398;11.762;2023-11-19T14:30:18;14.50;99.90
12481;DHT22;6305;48.398;11.762;2023-11-19T14:32:46;14.30;99.90
12481;DHT22;6305;48.398;11.762;2023-11-19T14:35:15;14.30;99.90
12481;DHT22;6305;48.398;11.762;2023-11-19T14:37:42;14.20;99.90
12481;DHT22;6305;48.398;11.762;2023-11-19T14:40:11;14.00;99.90
12481;DHT22;6305;48.398;11.762;2023-11-19T14:42:38;13.90;99.90
12481;DHT22;6305;48.398;11.762;2023-11-19T14:45:07;13.80;99.90
12481;DHT22;6305;48.398;11.762;2023-11-19T14:47:38;13.70;99.90
12481;DHT22;6305;48.398;11.762;2023-11-19T14:50:06;13.60;99.90
12481;DHT22;6305;48.398;11.762;2023-11-19T14:52:36;13.60;99.90
12481;DHT22;6305;48.398;11.762;2023-11-19T14:55:04;13.50;99.90
12481;DHT22;6305;48.398;11.762;2023-11-19T14:57:31;13.40;99.90
12481;DHT22;6305;48.398;11.762;2023-11-19T14:59:58;13.30;99.90
12481;DHT22;6305;48.398;11.762;2023-11-19T15:02:27;13.30;99.90
12481;DHT22;6305;48.398;11.762;2023-11-19T15:04:54;13.20;99.90
12481;DHT22;6305;48.398;11.762;2023-11-19T15:07:21;13.10;99.90
12481;DHT22;6305;48.398;11.762;2023-11-19T15:09:50;13.00;99.90
12481;DHT22;6305;48.398;11.762;2023-11-19T15:12:17;12.90;99.90
12481;DHT22;6305;48.398;11.762;2023-11-19T15:14:44;12.80;99.90
12481;DHT22;6305;48.398;11.762;2023-11-19T15:17:12;12.70;99.90
12481;DHT22;6305;48.398;11.762;2023-11-19T15:19:39;12.70;99.90
12481;DHT22;6305;48.398;11.762;2023-11-19T15:22:06;12.70;99.90
12481;DHT22;6305;48.398;11.762;2023-11-19T15:24:33;12.50;99.90
12481;DHT22;6305;48.398;11.762;2023-11-19T15:27:04;12.30;99.90
12481;DHT22;6305;48.398;11.762;2023-11-19T15:29:32;12.20;99.90
12481;DHT22;6305;48.398;11.762;2023-11-19T15:32:00;12.20;99.90
12481;DHT22;6305;48.398;11.762;2023-11-19T15:34:29;12.10;99.90
12481;DHT22;6305;48.398;11.762;2023-11-19T15:36:56;12.10;99.90
12481;DHT22;6305;48.398;11.762;2023-11-19T15:39:30;12.00;99.90
12481;DHT22;6305;48.398;11.762;2023-11-19T15:41:59;11.90;99.90
12481;DHT22;6305;48.398;11.762;2023-11-19T15:44:30;11.80;99.90
12481;DHT22;6305;48.398;11.762;2023-11-19T15:47:03;11.70;99.90
12481;DHT22;6305;48.398;11.762;2023-11-19T15:49:31;11.60;99.90
12481;DHT22;6305;48.398;11.762;2023-11-19T15:51:58;11.50;99.90
12481;DHT22;6305;48.398;11.762;2023-11-19T15:54:26;11.40;99.90